Surface observations / UK / EGBB

Quebec | Canada | USA | France | UK | Europe | Elsewhere

Display: Info & Location for EGBB | Help decoding METAR

EGBB BIRMINGHAM AIRPORT -- UK
Raw surface observations for station EGBB
EGBB 291820Z 32014KT 9999 FEW025 20/14 Q1016=
EGBB 291750Z 32011KT 9999 FEW024 BKN048 20/14 Q1016=
EGBB 291720Z 33014KT 9999 FEW035 BKN045 21/14 Q1016=
EGBB 291650Z 32012KT 9999 FEW032 BKN045 22/13 Q1016=
EGBB 291620Z 31011KT 9999 SCT033 BKN046 22/13 Q1016=
EGBB 291550Z 31010KT 290V350 9999 SCT033 BKN046 23/13 Q1016=
EGBB 291520Z AUTO 31011KT 9999 SCT035/// OVC041/// 22/13 Q1016=
EGBB 291450Z 32013KT 9999 SCT038 23/13 Q1016=
EGBB 291420Z 32009KT 280V360 9999 SCT046 23/12 Q1016=
EGBB 291350Z 31009KT 270V350 9999 SCT043 23/12 Q1016=
EGBB 291320Z 30010KT 260V340 9999 SCT039 24/12 Q1016=
EGBB 291250Z 31010KT 9999 SCT038 23/12 Q1016=
EGBB 291220Z 32008KT 9999 SCT038 22/12 Q1016=
EGBB 291150Z 32008KT 9999 SCT035 22/12 Q1016=
EGBB 291120Z 31009KT 9999 FEW035 22/12 Q1017=
EGBB 291050Z 31011KT 9999 FEW036 21/12 Q1017=
EGBB 291020Z 30009KT CAVOK 21/11 Q1017=
EGBB 290950Z 29006KT 250V320 9999 FEW024 20/11 Q1017=
EGBB 290920Z 32006KT 290V350 CAVOK 19/12 Q1017=
EGBB 290850Z 30005KT 270V350 CAVOK 18/12 Q1017=
EGBB 290820Z 32006KT 280V360 CAVOK 18/12 Q1017=
EGBB 290750Z 32008KT 9999 FEW012 17/13 Q1017=
EGBB 290720Z 32008KT 9999 FEW016 16/13 Q1018=
EGBB 290650Z 31006KT 8000 NSC 16/13 Q1018=
EGBB 290620Z 31007KT 6000 NSC 16/13 Q1017=
EGBB 290550Z 31007KT 5000 HZ FEW005 15/13 Q1017=
EGBB 290520Z 30005KT 4300 HZ SCT004 15/13 Q1017=
EGBB 290450Z 31006KT 4500 HZ SCT003 14/13 Q1017=
EGBB 290420Z 31007KT 8000 NSC 15/13 Q1017=
EGBB 290350Z 29005KT CAVOK 15/13 Q1017=
EGBB 290320Z 30005KT CAVOK 15/13 Q1018=
EGBB 290250Z 30005KT 270V330 CAVOK 15/13 Q1018=
EGBB 290220Z 30004KT CAVOK 16/13 Q1018=
EGBB 290150Z AUTO 31003KT 6000 NCD 16/13 Q1018=
EGBB 290120Z AUTO VRB02KT 9999 NCD 16/13 Q1018=
EGBB 290050Z AUTO 33004KT 9999 NCD 16/13 Q1018=
EGBB 290020Z 33004KT CAVOK 17/13 Q1018=
EGBB 282350Z 32004KT CAVOK 17/13 Q1018=
EGBB 282320Z 32004KT CAVOK 18/13 Q1018=
EGBB 282250Z 32006KT CAVOK 18/14 Q1018=
EGBB 282220Z 34005KT CAVOK 19/13 Q1018=
EGBB 282150Z 36005KT CAVOK 19/13 Q1018=
EGBB 282120Z 34005KT 300V010 CAVOK 19/13 Q1018=
EGBB 282050Z 34010KT CAVOK 20/13 Q1017=
EGBB 282020Z 33005KT CAVOK 21/11 Q1017=
EGBB 281950Z 02003KT CAVOK 21/11 Q1017=
EGBB 281920Z VRB03KT CAVOK 21/12 Q1017=
EGBB 281850Z AUTO 06005KT 9999 NCD 22/12 Q1017=
EGBB 281820Z 08005KT 020V120 CAVOK 22/11 Q1016=